Impacts METAR Board
IDs:

KOLS - Nogales Intl, AZ, US

Updated at: 0000 UTC 20 Sep 2020
Potential Impact None Slight Moderate High
Time 19/12Z 19/13Z 19/14Z 19/15Z 19/16Z 19/17Z 19/18Z 19/19Z 19/20Z 19/21Z 19/22Z 19/23Z 20/00Z
Temp66 65 64 74 79 84 88 90 90 93 93 93 92
Dewpt45 45 46 47 48 49 46 46 45 45 44 43 44
Altim30.09 30.10 30.10 30.12 30.12 30.12 30.10 30.08 30.05 30.02 30.00 29.99 29.98
VIS10 10 10 10 10 10 10 10 10 10 10 10 10
CIG-- -- -- -- -- -- -- -- -- -- -- -- --
CoverCLRCLRCLRCLRCLRCLRCLRCLRCLRCLRCLRCLRCLR
FltCatVFRVFRVFRVFRVFRVFRVFRVFRVFRVFRVFRVFRVFR
WX--------------------------
WDir040203020000032031000
WSpd0 4 4 4 3 3 6 3 8 8 4 3
WGst-- -- -- -- -- -- -- -- -- -- -- -- --
Raw hourly METARs
KOLS 191154Z AUTO 00000KT 10SM CLR 19/07 A3009 RMK AO2 SLP118 T01890072 10272 20189 55000
KOLS 191254Z AUTO 04004KT 10SM CLR 18/07 A3010 RMK AO2 SLP123 T01830072
KOLS 191354Z AUTO 02004KT 10SM CLR 18/08 A3010 RMK AO2 SLP128 T01780078
KOLS 191454Z AUTO 03004KT 10SM CLR 23/08 A3012 RMK AO2 SLP128 T02330083 53008
KOLS 191554Z AUTO 20003KT 10SM CLR 26/09 A3012 RMK AO2 SLP125 T02610089
KOLS 191654Z AUTO VRB03KT 10SM CLR 29/09 A3012 RMK AO2 SLP121 T02890094
KOLS 191754Z AUTO VRB06KT 10SM CLR 31/08 A3010 RMK AO2 SLP114 T03110078 10317 20172 58004
KOLS 191854Z AUTO 10SM CLR 32/08 A3008 RMK AO2 SLP104 T03220078
KOLS 191954Z AUTO VRB03KT 10SM CLR 32/07 A3005 RMK AO2 SLP095 T03220072
KOLS 192054Z AUTO 32008KT 10SM CLR 34/07 A3002 RMK AO2 SLP085 T03390072 58026
KOLS 192154Z AUTO 31008KT 260V340 10SM CLR 34/07 A3000 RMK AO2 SLP079 T03390067
KOLS 192254Z AUTO VRB04KT 10SM CLR 34/06 A2999 RMK AO2 SLP078 T03390061
KOLS 192354Z AUTO VRB03KT 10SM CLR 33/07 A2998 RMK AO2 SLP078 T03330067 10350 20306 56012



Page loaded:  00:52 UTC  |   05:52 PM Pacific  |   06:52 PM Mountain  |   07:52 PM Central  |   08:52 PM Eastern

 

ADVISORIES

FORECASTS

FORECASTS

OBSERVATIONS

USER TOOLS

ABOUT US